Rawlins Municipal Airport

About
Name: Rawlins Municipal Airport
Identifier:  RWL/KRWL
Serves:  Rawlins, Wyoming
Owner:  Rawlins Carbon County Airport Board
Public/Private:  Public
Local Time:  25. Aug 23:33 MDT
Description: Coordinates: 41°48′20″N 107°12′0″W / 41.80556°N 107.20000°W / 41.80556; -107.20000
Source: Wikipedia
Location
Runways
Identifier Length (m/ft) Surface
4/22 7,008/7,008 Asphalt
10/28 4,118/4,118 Asphalt
Statistics
Flights per Day:
0 flights
Distance: 147km (91mi)
Flights delayed:
20% (0 flights per day delayed)
Delay Average: 271 minutes
Current Weather
 21 C (Humidity: 21%)
  17kt (31km/h / 19mph) from 290°
27 knots Gusts

  16km (10 mi.)
 
 METAR KRWL 260453Z AUTO 29017G27KT 10SM CLR 21/M02 A3007 RMK AO2 PK WND 29034/0406 SLP069 T02111017

Current Delays

Departures
N/A
Arrivals
N/A

Destinations

Top Destinations
Airport Flights
per week
Seats
per week
  Hayden (HDN) 5 - 0 0
  Scottsbluff (BFF) 0 - 0 0
  Laramie (LAR) 0 - 0 0
  Wells (LWL) 0 - 0 0
  McCook (MCK) 0 - 0 0
  Sioux City (SUX) 0 - 0 0
  O'Neill (ONL) 0 - 0 0

Airlines & Planes

Top Airlines
Airline Flights
per Day
Seats
per Day
Nordwind Airlines 0 -
  Novair 0 -
  Nolinor Aviation 0 -
Top Plane Types
Model Flights Seats
Beech 1900D 0.7/day - 0
Beech E90 King Air 0.0/day - 0